Albany, Minnesota
Current Conditions -  °F | °C
As of 10:53 AM on Thursday 30 Oct 2014 (Local Time) from KD39 Reporting Station
Overcast Overcast  
Wind Chill: 34°   Ceiling: 3000
Heat Index: 39°   Visibility: 10mi
Dew Point: 36°   Wind: 8mph
Humidity: 88%   Direction: 360°N
Pressure: 30.11"   Gusts: NA
Location:  45.63°N, 94.57°W
Report Text: KD39 301553Z AUTO 36007KT 10SM OVC030 04/02 A3011 RMK AO2 T00410022
Loading
Personal Weather Stations






























Interactive Weather Map New forecast layout! Learn more

10-Day Weather Forecast

Advertisements
Track Severe Weather on mobile